Time;durP1;ratioP1;P1;durP2;ratioP2;P2;SDS_P1;SDS_P2;PMS_P1;PMS_P2;Temp;Humidity;BMP_temperature;BMP_pressure;BME280_temperature;BME280_humidity;BME280_pressure;Samples;Min_cycle;Max_cycle;Signal;HPM_P1;HPM_P2
2022/02/22 00:01:15;;;;;;;16.97;2.20;;;;;;;;;;4979993;28;20212;-76
2022/02/22 00:03:42;;;;;;;23.37;3.00;;;;;;;;;;4979096;28;20260;-77
2022/02/22 00:06:09;;;;;;;17.33;2.50;;;;;;;;;;4978731;28;20325;-76
2022/02/22 00:08:38;;;;;;;12.27;2.30;;;;;;;;;;4980528;28;20687;-77
2022/02/22 00:11:05;;;;;;;23.20;2.50;;;;;;;;;;4976432;28;20215;-74
2022/02/22 00:13:32;;;;;;;20.00;3.03;;;;;;;;;;4978469;28;20220;-77
2022/02/22 00:16:00;;;;;;;16.27;3.40;;;;;;;;;;4977070;28;20248;-76
2022/02/22 00:18:27;;;;;;;20.33;2.90;;;;;;;;;;4979626;28;20208;-76
2022/02/22 00:20:55;;;;;;;12.70;2.63;;;;;;;;;;4983550;28;20213;-77
2022/02/22 00:23:23;;;;;;;18.73;2.97;;;;;;;;;;5006601;23;20264;-85
2022/02/22 00:26:21;;;;;;;24.30;2.93;;;;;;;;;;4927690;29;20215;-85
2022/02/22 00:28:48;;;;;;;9.00;2.00;;;;;;;;;;4953217;28;20737;-85
2022/02/22 00:31:16;;;;;;;4.83;1.70;;;;;;;;;;4983560;28;20209;-85
2022/02/22 00:33:44;;;;;;;9.47;2.00;;;;;;;;;;4983360;28;20217;-85
2022/02/22 00:50:09;;;;;;;14.20;2.17;;;;;;;;;;4977553;28;20249;-77
2022/02/22 00:52:36;;;;;;;14.17;2.63;;;;;;;;;;4978437;28;20800;-77
2022/02/22 00:55:04;;;;;;;18.20;2.50;;;;;;;;;;4982435;28;20209;-76
2022/02/22 00:57:31;;;;;;;14.97;2.17;;;;;;;;;;4978631;28;20311;-76
2022/02/22 00:59:58;;;;;;;18.43;3.13;;;;;;;;;;4982052;28;20291;-76
2022/02/22 01:02:25;;;;;;;15.50;2.93;;;;;;;;;;4977775;28;20628;-76
2022/02/22 01:04:52;;;;;;;15.50;2.97;;;;;;;;;;4981063;28;20405;-76
2022/02/22 01:07:21;;;;;;;14.10;2.70;;;;;;;;;;4979273;28;20228;-76
2022/02/22 01:09:49;;;;;;;15.53;2.57;;;;;;;;;;4976584;28;20208;-76
2022/02/22 01:12:17;;;;;;;20.60;2.80;;;;;;;;;;4977333;28;20235;-76
2022/02/22 01:14:44;;;;;;;20.17;3.03;;;;;;;;;;4978842;28;20306;-76
2022/02/22 01:17:12;;;;;;;15.93;2.93;;;;;;;;;;4976890;28;20746;-76
2022/02/22 01:19:39;;;;;;;25.50;3.13;;;;;;;;;;4979157;28;20212;-75
2022/02/22 01:22:06;;;;;;;21.27;3.30;;;;;;;;;;4976035;28;20557;-76
2022/02/22 01:24:35;;;;;;;20.17;2.93;;;;;;;;;;4978962;28;20228;-76
2022/02/22 01:27:02;;;;;;;18.17;2.87;;;;;;;;;;4976723;28;20327;-76
2022/02/22 01:29:29;;;;;;;18.53;2.77;;;;;;;;;;4978995;28;20205;-76
2022/02/22 01:31:56;;;;;;;16.07;2.73;;;;;;;;;;4979956;28;20677;-75
2022/02/22 01:34:23;;;;;;;22.97;3.17;;;;;;;;;;4981675;28;21003;-76
2022/02/22 01:36:51;;;;;;;22.10;3.77;;;;;;;;;;4981442;28;20252;-75
2022/02/22 01:39:18;;;;;;;29.40;3.30;;;;;;;;;;4982208;28;20197;-76
2022/02/22 01:41:46;;;;;;;21.37;3.00;;;;;;;;;;4977663;28;20200;-76
2022/02/22 01:44:14;;;;;;;16.73;3.20;;;;;;;;;;4977207;28;20221;-76
2022/02/22 01:46:41;;;;;;;28.13;3.87;;;;;;;;;;4980752;28;20243;-75
2022/02/22 01:49:08;;;;;;;21.60;3.50;;;;;;;;;;4979731;28;20221;-75
2022/02/22 01:51:38;;;;;;;23.33;3.77;;;;;;;;;;4977981;28;20583;-76
2022/02/22 01:54:05;;;;;;;23.07;3.17;;;;;;;;;;4984495;28;20225;-75
2022/02/22 01:56:32;;;;;;;30.20;3.93;;;;;;;;;;4981421;28;20225;-75
2022/02/22 01:59:02;;;;;;;23.60;3.93;;;;;;;;;;4981921;28;20197;-76
2022/02/22 02:01:29;;;;;;;24.13;3.07;;;;;;;;;;4982747;28;20675;-75
2022/02/22 02:03:57;;;;;;;26.90;3.67;;;;;;;;;;4982483;28;20802;-75
2022/02/22 02:06:24;;;;;;;26.70;3.37;;;;;;;;;;4977217;28;20259;-75
2022/02/22 02:08:51;;;;;;;19.23;3.30;;;;;;;;;;4981879;28;20209;-75
2022/02/22 02:11:18;;;;;;;27.57;4.20;;;;;;;;;;4978837;28;20205;-75
2022/02/22 02:13:45;;;;;;;32.13;3.63;;;;;;;;;;4980469;28;20237;-75
2022/02/22 02:16:14;;;;;;;20.07;3.40;;;;;;;;;;4980510;28;20260;-75
2022/02/22 02:18:41;;;;;;;33.03;3.63;;;;;;;;;;4981394;28;20573;-75
2022/02/22 02:21:09;;;;;;;22.00;3.50;;;;;;;;;;4982034;28;20216;-76
2022/02/22 02:23:37;;;;;;;38.30;4.60;;;;;;;;;;4983629;28;20244;-76
2022/02/22 02:26:04;;;;;;;24.67;3.70;;;;;;;;;;4981924;28;20221;-76
2022/02/22 02:28:32;;;;;;;28.83;3.57;;;;;;;;;;4979190;28;20208;-76
2022/02/22 02:30:59;;;;;;;41.23;4.23;;;;;;;;;;4977026;28;20209;-75
2022/02/22 02:33:26;;;;;;;27.93;4.17;;;;;;;;;;4978893;28;20233;-75
2022/02/22 02:35:53;;;;;;;30.93;3.90;;;;;;;;;;4981966;28;20236;-75
2022/02/22 02:38:20;;;;;;;29.83;4.73;;;;;;;;;;4984306;28;20747;-75
2022/02/22 02:40:49;;;;;;;19.50;4.00;;;;;;;;;;4978720;28;20202;-75
2022/02/22 02:43:16;;;;;;;20.77;3.03;;;;;;;;;;4983444;28;20317;-77
2022/02/22 02:45:43;;;;;;;17.37;3.37;;;;;;;;;;4980969;28;20247;-75
2022/02/22 02:48:10;;;;;;;27.20;4.07;;;;;;;;;;4983513;28;20210;-77
2022/02/22 02:50:37;;;;;;;26.20;3.87;;;;;;;;;;4982944;28;20575;-77
2022/02/22 02:53:05;;;;;;;21.57;3.57;;;;;;;;;;4981649;28;20292;-74
2022/02/22 02:55:32;;;;;;;19.70;3.20;;;;;;;;;;4980466;28;20256;-75
2022/02/22 02:58:01;;;;;;;18.77;3.13;;;;;;;;;;4980033;28;20201;-75
2022/02/22 03:00:28;;;;;;;24.73;3.30;;;;;;;;;;4983876;28;20213;-76
2022/02/22 03:02:55;;;;;;;28.33;3.03;;;;;;;;;;4980838;28;20220;-76
2022/02/22 03:05:22;;;;;;;17.77;3.07;;;;;;;;;;4981004;28;20596;-74
2022/02/22 03:07:53;;;;;;;12.50;2.90;;;;;;;;;;4981979;28;20316;-75
2022/02/22 03:10:20;;;;;;;18.07;3.67;;;;;;;;;;4983829;28;20209;-76
2022/02/22 03:12:47;;;;;;;19.33;3.40;;;;;;;;;;4979469;28;20201;-74
2022/02/22 03:15:16;;;;;;;14.07;3.67;;;;;;;;;;4979010;28;20216;-74
2022/02/22 03:17:43;;;;;;;19.57;3.63;;;;;;;;;;4977682;28;20227;-74
2022/02/22 03:20:11;;;;;;;19.87;3.13;;;;;;;;;;4980024;28;20213;-76
2022/02/22 03:22:43;;;;;;;13.80;3.40;;;;;;;;;;4980835;28;20308;-75
2022/02/22 03:25:10;;;;;;;17.80;3.70;;;;;;;;;;4981632;28;20616;-75
2022/02/22 03:27:40;;;;;;;30.67;3.63;;;;;;;;;;4979136;28;20791;-74
2022/02/22 03:30:08;;;;;;;17.37;3.67;;;;;;;;;;4981507;28;20236;-75
2022/02/22 03:32:36;;;;;;;24.07;3.90;;;;;;;;;;4981267;28;20636;-75
2022/02/22 03:35:03;;;;;;;27.80;3.40;;;;;;;;;;4981431;28;20580;-76
2022/02/22 03:37:30;;;;;;;27.37;4.03;;;;;;;;;;4985752;28;20229;-76
2022/02/22 03:39:57;;;;;;;18.23;3.53;;;;;;;;;;4984587;28;20209;-75
2022/02/22 03:42:25;;;;;;;23.03;3.80;;;;;;;;;;4976319;28;20198;-73
2022/02/22 03:44:52;;;;;;;18.93;3.73;;;;;;;;;;4979806;28;20549;-75
2022/02/22 03:47:19;;;;;;;19.73;2.77;;;;;;;;;;4983189;28;20231;-77
2022/02/22 03:49:47;;;;;;;28.83;3.90;;;;;;;;;;4978684;28;20221;-76
2022/02/22 03:52:14;;;;;;;24.73;3.83;;;;;;;;;;4976562;28;20671;-76
2022/02/22 03:54:42;;;;;;;27.60;4.07;;;;;;;;;;4981751;28;20212;-76
2022/02/22 03:57:09;;;;;;;16.67;3.83;;;;;;;;;;4982203;28;20220;-76
2022/02/22 03:59:36;;;;;;;21.80;4.50;;;;;;;;;;4983011;28;20300;-76
2022/02/22 04:02:03;;;;;;;26.20;3.63;;;;;;;;;;4979229;28;20210;-76
2022/02/22 04:04:30;;;;;;;20.47;3.57;;;;;;;;;;4979951;28;20216;-75
2022/02/22 04:06:59;;;;;;;22.67;3.73;;;;;;;;;;4975267;28;20276;-76
2022/02/22 04:09:26;;;;;;;26.17;3.97;;;;;;;;;;4977949;28;20212;-77
2022/02/22 04:11:53;;;;;;;20.00;3.57;;;;;;;;;;4977179;28;20201;-76
2022/02/22 04:14:20;;;;;;;20.13;3.10;;;;;;;;;;4975542;28;20197;-77
2022/02/22 04:16:48;;;;;;;30.60;3.73;;;;;;;;;;4978236;28;20225;-76
2022/02/22 04:19:15;;;;;;;30.20;4.23;;;;;;;;;;4978631;28;20544;-74
2022/02/22 04:21:42;;;;;;;30.03;4.57;;;;;;;;;;4980961;28;20332;-76
2022/02/22 04:24:11;;;;;;;27.00;3.77;;;;;;;;;;4975096;28;20221;-76
2022/02/22 04:26:38;;;;;;;37.23;4.90;;;;;;;;;;4975996;28;20727;-76
2022/02/22 04:29:05;;;;;;;28.03;4.60;;;;;;;;;;4977180;28;20204;-75
2022/02/22 04:31:33;;;;;;;26.53;5.37;;;;;;;;;;4978504;28;20205;-76
2022/02/22 04:34:00;;;;;;;29.40;4.50;;;;;;;;;;4977062;28;20208;-76
2022/02/22 04:36:27;;;;;;;24.03;4.57;;;;;;;;;;4978917;28;20308;-75
2022/02/22 04:38:55;;;;;;;23.50;4.13;;;;;;;;;;4976476;28;20220;-75
2022/02/22 04:41:23;;;;;;;28.43;4.53;;;;;;;;;;4979170;28;20240;-75
2022/02/22 04:43:50;;;;;;;27.43;4.20;;;;;;;;;;4978835;28;20308;-76
2022/02/22 04:46:17;;;;;;;30.13;4.60;;;;;;;;;;4975375;28;20233;-74
2022/02/22 04:48:45;;;;;;;28.20;4.30;;;;;;;;;;4983694;28;20216;-76
2022/02/22 04:51:12;;;;;;;24.33;4.63;;;;;;;;;;4976597;28;20646;-76
2022/02/22 04:53:39;;;;;;;28.93;3.53;;;;;;;;;;4978211;28;20200;-75
2022/02/22 04:56:06;;;;;;;37.13;5.33;;;;;;;;;;4979950;28;20238;-75
2022/02/22 04:58:35;;;;;;;25.27;3.80;;;;;;;;;;4980584;28;20244;-77
2022/02/22 05:01:02;;;;;;;33.07;4.30;;;;;;;;;;4979346;28;20217;-76
2022/02/22 05:03:29;;;;;;;33.87;3.97;;;;;;;;;;4977677;28;20401;-77
2022/02/22 05:05:56;;;;;;;32.73;3.73;;;;;;;;;;4983855;28;20220;-75
2022/02/22 05:08:23;;;;;;;33.00;3.87;;;;;;;;;;4978908;28;20196;-76
2022/02/22 05:10:50;;;;;;;24.43;4.10;;;;;;;;;;4979048;28;20209;-75
2022/02/22 05:13:18;;;;;;;34.67;4.70;;;;;;;;;;4974038;28;20304;-75
2022/02/22 05:15:46;;;;;;;46.13;4.90;;;;;;;;;;4979386;28;20197;-75
2022/02/22 05:18:13;;;;;;;26.80;3.93;;;;;;;;;;4977353;28;20208;-75
2022/02/22 05:20:54;;;;;;;43.70;4.10;;;;;;;;;;4977814;28;20301;-76
2022/02/22 05:23:21;;;;;;;28.03;3.90;;;;;;;;;;4974060;28;20667;-75
2022/02/22 05:25:48;;;;;;;29.60;3.83;;;;;;;;;;4976586;28;20235;-77
2022/02/22 05:28:15;;;;;;;27.70;3.73;;;;;;;;;;4980139;28;20621;-76
2022/02/22 05:30:42;;;;;;;32.73;4.63;;;;;;;;;;4980555;28;20219;-76
2022/02/22 05:33:12;;;;;;;35.87;4.80;;;;;;;;;;4978008;28;20225;-76
2022/02/22 05:35:39;;;;;;;29.53;3.70;;;;;;;;;;4978721;28;20300;-75
2022/02/22 05:38:06;;;;;;;39.63;4.07;;;;;;;;;;4976555;28;20205;-77
2022/02/22 05:40:34;;;;;;;23.07;3.80;;;;;;;;;;4977441;28;20568;-76
2022/02/22 05:43:01;;;;;;;23.03;3.10;;;;;;;;;;4978787;28;20299;-77
2022/02/22 05:45:28;;;;;;;30.30;3.90;;;;;;;;;;4978754;28;20557;-76
2022/02/22 05:47:55;;;;;;;32.40;3.87;;;;;;;;;;4978690;28;21050;-78
2022/02/22 05:50:24;;;;;;;26.70;3.87;;;;;;;;;;4975848;28;20205;-76
2022/02/22 05:52:52;;;;;;;22.10;4.37;;;;;;;;;;4976485;28;20211;-77
2022/02/22 05:55:19;;;;;;;22.37;4.33;;;;;;;;;;4976565;28;20358;-77
2022/02/22 05:57:46;;;;;;;29.73;4.97;;;;;;;;;;4979057;28;20327;-77
2022/02/22 06:00:14;;;;;;;30.70;4.63;;;;;;;;;;4977222;28;20533;-77
2022/02/22 06:02:41;;;;;;;29.20;3.50;;;;;;;;;;4976787;28;20298;-78
2022/02/22 06:05:09;;;;;;;38.90;4.13;;;;;;;;;;4975953;28;20232;-78
2022/02/22 06:07:37;;;;;;;32.40;3.93;;;;;;;;;;4980449;28;20332;-78
2022/02/22 06:10:05;;;;;;;31.47;4.40;;;;;;;;;;4979663;28;20208;-77
2022/02/22 06:12:33;;;;;;;27.83;4.87;;;;;;;;;;4980780;28;20256;-77
2022/02/22 06:15:00;;;;;;;27.97;4.00;;;;;;;;;;4977778;28;20205;-77
2022/02/22 06:17:27;;;;;;;32.60;4.60;;;;;;;;;;4975688;28;20600;-77
2022/02/22 06:19:57;;;;;;;28.87;4.17;;;;;;;;;;4978589;28;20607;-76
2022/02/22 06:22:24;;;;;;;23.93;3.70;;;;;;;;;;4976684;28;20204;-74
2022/02/22 06:24:53;;;;;;;19.20;3.77;;;;;;;;;;4974593;28;20299;-75
2022/02/22 06:27:20;;;;;;;35.23;4.03;;;;;;;;;;4975993;28;20239;-76
2022/02/22 06:29:47;;;;;;;27.50;3.50;;;;;;;;;;4976399;28;20331;-76
2022/02/22 06:32:14;;;;;;;41.80;4.80;;;;;;;;;;4983410;28;20205;-76
2022/02/22 06:34:42;;;;;;;25.37;3.63;;;;;;;;;;4978303;28;20209;-75
2022/02/22 06:37:09;;;;;;;28.57;3.80;;;;;;;;;;4980702;28;20260;-78
2022/02/22 06:39:37;;;;;;;19.47;3.73;;;;;;;;;;4983103;28;20212;-77
2022/02/22 06:42:05;;;;;;;21.27;3.80;;;;;;;;;;4985327;28;20297;-77
2022/02/22 06:44:35;;;;;;;17.50;4.47;;;;;;;;;;4980472;28;20594;-76
2022/02/22 06:47:02;;;;;;;34.53;5.50;;;;;;;;;;4979719;28;20738;-77
2022/02/22 07:33:40;;;;;;;16.07;4.03;;;;;;;;;;5839804;23;20292;-80
2022/02/22 07:36:07;;;;;;;22.37;4.23;;;;;;;;;;5021028;28;20264;-78
2022/02/22 07:38:34;;;;;;;22.97;4.53;;;;;;;;;;5012916;28;20557;-77
2022/02/22 07:41:02;;;;;;;25.03;4.03;;;;;;;;;;5017039;28;20207;-79
2022/02/22 07:43:37;;;;;;;22.43;4.73;;;;;;;;;;5024127;28;20246;-79
2022/02/22 07:46:05;;;;;;;24.67;5.10;;;;;;;;;;5016974;28;20231;-78
2022/02/22 07:48:32;;;;;;;20.20;3.97;;;;;;;;;;5015728;28;20294;-79
2022/02/22 07:51:00;;;;;;;23.00;3.97;;;;;;;;;;5026279;28;20227;-81
2022/02/22 07:53:27;;;;;;;22.13;4.80;;;;;;;;;;5033526;28;20219;-78
2022/02/22 07:55:56;;;;;;;19.93;3.50;;;;;;;;;;5029161;28;20204;-77
2022/02/22 07:58:23;;;;;;;21.07;4.07;;;;;;;;;;5019564;28;20227;-79
2022/02/22 08:00:51;;;;;;;23.60;3.63;;;;;;;;;;5002114;28;20215;-79
2022/02/22 08:03:18;;;;;;;24.60;3.67;;;;;;;;;;4998466;28;20213;-78
2022/02/22 08:05:45;;;;;;;22.57;3.70;;;;;;;;;;5008902;28;20270;-79
2022/02/22 08:08:14;;;;;;;20.20;3.30;;;;;;;;;;5006978;28;20201;-79
2022/02/22 08:10:41;;;;;;;24.30;3.77;;;;;;;;;;5016722;28;20204;-78
2022/02/22 08:13:08;;;;;;;23.33;3.10;;;;;;;;;;5026062;28;20653;-79
2022/02/22 08:15:35;;;;;;;23.73;3.83;;;;;;;;;;5011855;28;20228;-78
2022/02/22 08:18:03;;;;;;;20.07;3.80;;;;;;;;;;5023426;28;20734;-80
2022/02/22 08:20:30;;;;;;;17.80;3.77;;;;;;;;;;5005778;28;20606;-80
2022/02/22 08:23:02;;;;;;;20.67;3.23;;;;;;;;;;5015193;28;20209;-81
2022/02/22 08:25:31;;;;;;;18.83;3.67;;;;;;;;;;5008409;28;20220;-81
2022/02/22 08:27:58;;;;;;;24.77;3.53;;;;;;;;;;5007537;28;20282;-79
2022/02/22 08:30:25;;;;;;;17.53;3.47;;;;;;;;;;5013111;28;20593;-80
2022/02/22 08:32:53;;;;;;;19.00;3.80;;;;;;;;;;5016624;28;20211;-79
2022/02/22 08:35:20;;;;;;;17.00;3.20;;;;;;;;;;5014073;28;20209;-79
2022/02/22 08:37:50;;;;;;;17.37;3.00;;;;;;;;;;5022112;28;20259;-81
2022/02/22 08:40:17;;;;;;;22.83;3.50;;;;;;;;;;5017626;28;20200;-79
2022/02/22 08:42:46;;;;;;;23.67;3.17;;;;;;;;;;5011695;28;20287;-80
2022/02/22 08:45:13;;;;;;;24.17;3.57;;;;;;;;;;5019146;28;20251;-78
2022/02/22 08:47:40;;;;;;;21.27;3.60;;;;;;;;;;5018944;28;20250;-80
2022/02/22 08:50:08;;;;;;;23.47;3.60;;;;;;;;;;5007400;28;20207;-79
2022/02/22 08:52:35;;;;;;;31.03;3.47;;;;;;;;;;5012066;28;20244;-79
2022/02/22 08:55:02;;;;;;;20.90;3.57;;;;;;;;;;5009538;28;20211;-79
2022/02/22 08:57:30;;;;;;;19.77;3.83;;;;;;;;;;5007274;28;20229;-79
2022/02/22 08:59:59;;;;;;;20.17;3.77;;;;;;;;;;5005108;28;20328;-79
2022/02/22 09:02:26;;;;;;;25.27;3.60;;;;;;;;;;4984243;28;20267;-79
2022/02/22 09:04:53;;;;;;;22.00;3.47;;;;;;;;;;5006191;28;20219;-80
2022/02/22 09:07:20;;;;;;;27.00;4.50;;;;;;;;;;4999959;28;20279;-78
2022/02/22 09:09:48;;;;;;;22.70;3.73;;;;;;;;;;5016459;28;20200;-80
2022/02/22 09:12:15;;;;;;;21.20;4.27;;;;;;;;;;5013769;28;20205;-80
2022/02/22 09:14:42;;;;;;;15.47;3.57;;;;;;;;;;5016245;28;20209;-79
2022/02/22 09:17:11;;;;;;;21.73;4.10;;;;;;;;;;5015272;28;20233;-79
2022/02/22 09:19:39;;;;;;;13.10;3.10;;;;;;;;;;5018509;28;20211;-79
2022/02/22 09:22:08;;;;;;;20.40;3.53;;;;;;;;;;5016388;28;20231;-79
2022/02/22 09:24:35;;;;;;;24.10;4.03;;;;;;;;;;5020976;28;20581;-80
2022/02/22 09:27:02;;;;;;;19.67;3.20;;;;;;;;;;5016932;28;20282;-79
2022/02/22 09:29:29;;;;;;;13.97;3.00;;;;;;;;;;5019386;28;20278;-80
2022/02/22 09:31:57;;;;;;;18.10;3.03;;;;;;;;;;5020329;28;20220;-80
2022/02/22 09:34:25;;;;;;;30.37;5.33;;;;;;;;;;5012345;28;20298;-80
2022/02/22 09:36:52;;;;;;;18.37;3.20;;;;;;;;;;4993790;28;20594;-81
2022/02/22 09:39:20;;;;;;;17.07;3.10;;;;;;;;;;5010851;28;20205;-81
2022/02/22 09:41:47;;;;;;;19.33;3.33;;;;;;;;;;5016440;28;20200;-80
2022/02/22 09:44:14;;;;;;;24.87;3.70;;;;;;;;;;5014101;28;20214;-80
2022/02/22 09:46:42;;;;;;;20.73;3.23;;;;;;;;;;5012552;28;20232;-80
2022/02/22 09:49:12;;;;;;;20.57;3.50;;;;;;;;;;5011014;28;20673;-80
2022/02/22 09:51:40;;;;;;;25.13;2.97;;;;;;;;;;5004332;28;20870;-80
2022/02/22 09:54:08;;;;;;;15.93;3.00;;;;;;;;;;5017136;28;20235;-80
2022/02/22 09:56:42;;;;;;;14.90;2.57;;;;;;;;;;5023615;28;20310;-81
2022/02/22 09:59:10;;;;;;;23.93;3.30;;;;;;;;;;5020864;28;20221;-80
2022/02/22 10:01:40;;;;;;;16.30;3.07;;;;;;;;;;5017093;28;20220;-81
2022/02/22 10:04:08;;;;;;;18.20;2.60;;;;;;;;;;5022447;28;20211;-80
2022/02/22 10:06:44;;;;;;;18.13;2.97;;;;;;;;;;5021312;28;20246;-79
2022/02/22 10:11:55;;;;;;;17.60;2.50;;;;;;;;;;5008245;28;20263;-80
2022/02/22 10:14:23;;;;;;;19.87;2.57;;;;;;;;;;5017937;28;20299;-80
2022/02/22 10:16:50;;;;;;;20.17;2.33;;;;;;;;;;5032009;28;20223;-81
2022/02/22 10:19:18;;;;;;;15.47;2.13;;;;;;;;;;5017435;28;20208;-81
2022/02/22 10:21:47;;;;;;;9.43;2.13;;;;;;;;;;5014712;28;20294;-80
2022/02/22 10:24:18;;;;;;;13.47;2.10;;;;;;;;;;5026454;28;20208;-80
2022/02/22 10:26:45;;;;;;;15.60;2.70;;;;;;;;;;5017249;28;20367;-79
2022/02/22 10:29:27;;;;;;;15.13;2.40;;;;;;;;;;5018860;28;20294;-80
2022/02/22 10:32:05;;;;;;;13.63;2.50;;;;;;;;;;5016594;28;20231;-80
2022/02/22 10:34:42;;;;;;;14.20;2.63;;;;;;;;;;5011433;28;20334;-80
2022/02/22 10:37:10;;;;;;;13.50;2.77;;;;;;;;;;5017641;28;20310;-81
2022/02/22 10:39:39;;;;;;;11.93;2.33;;;;;;;;;;5027438;28;20208;-80
2022/02/22 10:42:06;;;;;;;21.93;2.40;;;;;;;;;;5025059;28;20228;-80
2022/02/22 10:44:35;;;;;;;14.13;2.30;;;;;;;;;;5030278;28;20690;-81
2022/02/22 10:47:03;;;;;;;19.67;2.53;;;;;;;;;;5032655;28;20239;-81
2022/02/22 10:49:33;;;;;;;16.13;2.37;;;;;;;;;;5020152;28;20213;-81
2022/02/22 10:52:05;;;;;;;16.77;4.00;;;;;;;;;;5035845;28;20212;-80
2022/02/22 10:54:32;;;;;;;25.43;5.63;;;;;;;;;;4999210;28;20239;-81
2022/02/22 10:57:01;;;;;;;38.77;12.97;;;;;;;;;;5011415;28;20224;-80
2022/02/22 10:59:30;;;;;;;21.00;7.10;;;;;;;;;;5014726;28;20319;-80
2022/02/22 11:01:58;;;;;;;26.30;10.77;;;;;;;;;;5025594;28;20233;-80
2022/02/22 11:04:25;;;;;;;16.00;4.50;;;;;;;;;;5011338;28;20216;-82
2022/02/22 11:06:52;;;;;;;14.10;4.17;;;;;;;;;;5011985;28;20632;-80
2022/02/22 11:09:20;;;;;;;16.93;6.07;;;;;;;;;;5010455;28;20592;-82
2022/02/22 11:11:50;;;;;;;16.30;3.00;;;;;;;;;;5012912;28;20216;-79
2022/02/22 11:14:25;;;;;;;10.67;2.67;;;;;;;;;;5010453;28;20660;-80
2022/02/22 11:16:54;;;;;;;20.33;3.80;;;;;;;;;;5015082;28;20274;-80
2022/02/22 11:19:22;;;;;;;24.03;6.30;;;;;;;;;;5010359;28;20752;-80
2022/02/22 11:22:09;;;;;;;21.97;5.07;;;;;;;;;;5011091;28;20209;-80
2022/02/22 11:24:43;;;;;;;15.60;4.07;;;;;;;;;;5017607;28;20289;-81
2022/02/22 11:27:10;;;;;;;11.70;3.50;;;;;;;;;;5014129;28;20315;-81
2022/02/22 11:29:40;;;;;;;17.90;3.50;;;;;;;;;;4991307;28;20586;-81
2022/02/22 11:32:11;;;;;;;15.47;3.23;;;;;;;;;;5020126;28;20346;-81
2022/02/22 11:34:39;;;;;;;20.20;3.27;;;;;;;;;;5018936;28;20216;-80
2022/02/22 11:37:07;;;;;;;16.40;6.50;;;;;;;;;;5023270;28;20671;-79
2022/02/22 11:42:38;;;;;;;12.47;3.30;;;;;;;;;;5020829;28;20249;-78
2022/02/22 11:45:08;;;;;;;17.30;4.07;;;;;;;;;;5025962;28;20234;-78
2022/02/22 11:47:37;;;;;;;19.77;3.97;;;;;;;;;;5024327;28;20720;-78
2022/02/22 11:50:11;;;;;;;14.43;3.73;;;;;;;;;;5022223;28;20725;-78
2022/02/22 11:52:39;;;;;;;15.97;3.40;;;;;;;;;;5012422;28;20232;-78
2022/02/22 11:55:08;;;;;;;18.07;3.40;;;;;;;;;;5009775;28;20214;-79
2022/02/22 11:57:43;;;;;;;16.27;4.37;;;;;;;;;;5011796;28;20205;-79
2022/02/22 12:00:12;;;;;;;15.03;3.10;;;;;;;;;;5010859;28;20311;-78
2022/02/22 12:02:42;;;;;;;12.83;3.40;;;;;;;;;;5013158;28;20210;-78
2022/02/22 12:05:23;;;;;;;10.50;3.07;;;;;;;;;;5020079;28;20692;-78
2022/02/22 12:07:59;;;;;;;16.87;3.00;;;;;;;;;;5004359;28;20402;-78
2022/02/22 12:10:26;;;;;;;22.13;3.87;;;;;;;;;;5016533;28;20228;-78
2022/02/22 12:12:53;;;;;;;28.40;3.93;;;;;;;;;;5008594;28;20232;-78
2022/02/22 12:15:31;;;;;;;15.87;3.17;;;;;;;;;;5015241;28;20247;-78
2022/02/22 12:17:59;;;;;;;14.63;2.87;;;;;;;;;;5013491;28;20288;-78
2022/02/22 12:20:26;;;;;;;13.67;2.60;;;;;;;;;;5020565;28;20227;-78
2022/02/22 12:22:54;;;;;;;14.10;2.80;;;;;;;;;;5015926;28;20205;-79
2022/02/22 12:25:25;;;;;;;11.87;2.73;;;;;;;;;;5016957;28;20477;-78
2022/02/22 12:27:59;;;;;;;8.20;2.43;;;;;;;;;;5009254;28;20229;-78
2022/02/22 12:30:35;;;;;;;14.67;2.90;;;;;;;;;;5010810;28;20231;-78
2022/02/22 12:33:02;;;;;;;12.97;2.80;;;;;;;;;;5017810;28;20290;-78
2022/02/22 12:38:33;;;;;;;11.30;2.70;;;;;;;;;;5007788;28;20242;-78
2022/02/22 12:41:01;;;;;;;20.07;2.40;;;;;;;;;;5010421;28;20632;-78
2022/02/22 12:43:28;;;;;;;13.70;2.93;;;;;;;;;;5012406;28;20633;-78
2022/02/22 12:45:57;;;;;;;8.87;2.30;;;;;;;;;;5006754;28;20746;-78
2022/02/22 12:48:24;;;;;;;13.47;2.57;;;;;;;;;;5016552;28;20562;-78
2022/02/22 12:50:55;;;;;;;9.67;2.60;;;;;;;;;;5007431;28;20312;-78
2022/02/22 12:53:26;;;;;;;13.37;2.57;;;;;;;;;;5015739;28;20967;-78
2022/02/22 12:55:54;;;;;;;13.30;3.10;;;;;;;;;;5015618;28;20298;-78
2022/02/22 12:58:31;;;;;;;5.23;1.87;;;;;;;;;;5015401;28;20298;-78
2022/02/22 13:01:10;;;;;;;15.03;4.27;;;;;;;;;;4999914;28;20594;-78
2022/02/22 13:03:38;;;;;;;11.23;2.67;;;;;;;;;;5012637;28;20760;-78
2022/02/22 13:06:05;;;;;;;14.33;2.47;;;;;;;;;;5008407;28;20810;-79
2022/02/22 13:08:33;;;;;;;14.70;2.67;;;;;;;;;;5004930;28;20213;-78
2022/02/22 13:11:00;;;;;;;11.53;2.50;;;;;;;;;;5012903;28;20697;-78
2022/02/22 13:13:29;;;;;;;11.47;2.70;;;;;;;;;;5006971;28;20240;-78
2022/02/22 13:15:56;;;;;;;12.07;2.40;;;;;;;;;;5010360;28;20259;-78
2022/02/22 13:18:27;;;;;;;13.43;2.43;;;;;;;;;;5010305;28;20757;-78
2022/02/22 13:20:56;;;;;;;10.20;2.40;;;;;;;;;;5009408;28;20228;-78
2022/02/22 13:23:32;;;;;;;9.47;2.60;;;;;;;;;;5003073;28;20676;-78
2022/02/22 13:26:00;;;;;;;13.43;2.17;;;;;;;;;;5011093;28;20299;-78
2022/02/22 13:28:31;;;;;;;10.00;2.60;;;;;;;;;;5006365;28;20216;-78
2022/02/22 13:31:00;;;;;;;7.30;2.37;;;;;;;;;;5007286;28;20235;-78
2022/02/22 13:33:29;;;;;;;11.77;2.50;;;;;;;;;;5003826;28;20204;-78
2022/02/22 13:35:57;;;;;;;9.83;2.37;;;;;;;;;;5007654;28;20215;-78
2022/02/22 13:38:27;;;;;;;10.60;2.30;;;;;;;;;;5001580;28;20285;-78
2022/02/22 13:40:54;;;;;;;15.17;2.80;;;;;;;;;;5020448;28;20598;-79
2022/02/22 13:43:22;;;;;;;7.53;2.27;;;;;;;;;;5007327;28;20212;-78
2022/02/22 13:45:49;;;;;;;13.93;2.30;;;;;;;;;;5014266;28;20255;-78
2022/02/22 13:48:16;;;;;;;11.80;2.40;;;;;;;;;;5007476;28;20307;-78
2022/02/22 13:50:46;;;;;;;10.63;2.30;;;;;;;;;;5013415;28;20232;-78
2022/02/22 13:53:14;;;;;;;12.77;2.80;;;;;;;;;;5010024;28;20218;-78
2022/02/22 13:55:50;;;;;;;14.53;2.23;;;;;;;;;;5013846;28;20221;-78
2022/02/22 13:58:21;;;;;;;8.07;2.10;;;;;;;;;;5008900;28;20300;-78
2022/02/22 14:00:49;;;;;;;14.10;2.60;;;;;;;;;;5004633;28;20300;-78
2022/02/22 14:03:16;;;;;;;11.77;3.00;;;;;;;;;;5010116;28;20197;-78
2022/02/22 14:05:45;;;;;;;14.97;2.77;;;;;;;;;;5011111;28;20296;-78
2022/02/22 14:08:12;;;;;;;15.80;3.07;;;;;;;;;;5010399;28;20220;-78
2022/02/22 14:10:41;;;;;;;9.40;2.70;;;;;;;;;;5018619;28;20777;-78
2022/02/22 14:13:08;;;;;;;14.13;3.10;;;;;;;;;;5016724;28;20219;-78
2022/02/22 14:15:35;;;;;;;14.13;3.00;;;;;;;;;;5010959;28;20651;-78
2022/02/22 14:18:05;;;;;;;15.97;4.00;;;;;;;;;;5014588;28;20200;-78
2022/02/22 14:20:32;;;;;;;10.73;2.00;;;;;;;;;;5016293;28;20311;-78
2022/02/22 14:23:01;;;;;;;16.13;3.27;;;;;;;;;;5012682;28;20216;-78
2022/02/22 14:25:31;;;;;;;7.73;2.33;;;;;;;;;;5000648;28;20696;-78
2022/02/22 14:27:59;;;;;;;9.30;1.97;;;;;;;;;;4999340;28;20534;-78
2022/02/22 14:30:28;;;;;;;7.23;2.10;;;;;;;;;;5000755;28;20235;-78
2022/02/22 14:32:55;;;;;;;6.73;1.97;;;;;;;;;;5002900;28;20600;-80
2022/02/22 14:35:26;;;;;;;9.83;2.17;;;;;;;;;;5009596;28;20650;-78
2022/02/22 14:37:53;;;;;;;9.77;1.60;;;;;;;;;;4999023;28;20671;-79
2022/02/22 14:40:21;;;;;;;12.07;3.30;;;;;;;;;;5012841;28;20251;-78
2022/02/22 14:42:49;;;;;;;12.77;2.27;;;;;;;;;;5013167;28;20643;-78
2022/02/22 14:45:17;;;;;;;8.43;2.03;;;;;;;;;;5016401;28;20204;-79
2022/02/22 14:47:44;;;;;;;15.77;3.53;;;;;;;;;;5022546;28;20228;-78
2022/02/22 14:50:13;;;;;;;8.77;2.23;;;;;;;;;;5015886;28;20224;-77
2022/02/22 14:52:40;;;;;;;8.57;2.27;;;;;;;;;;5003893;28;20565;-79
2022/02/22 14:55:12;;;;;;;12.20;2.57;;;;;;;;;;5012638;28;20235;-78
2022/02/22 14:57:41;;;;;;;12.50;4.80;;;;;;;;;;5009128;28;20638;-79
2022/02/22 15:00:09;;;;;;;18.10;4.87;;;;;;;;;;5016072;28;20314;-78
2022/02/22 15:02:36;;;;;;;12.50;3.20;;;;;;;;;;5014819;28;20254;-79
2022/02/22 15:05:04;;;;;;;13.87;3.27;;;;;;;;;;5014364;28;20207;-79
2022/02/22 15:07:34;;;;;;;11.00;3.30;;;;;;;;;;5014564;28;20696;-79
2022/02/22 15:10:02;;;;;;;13.13;3.80;;;;;;;;;;5009113;28;20754;-79
2022/02/22 15:12:32;;;;;;;10.03;2.93;;;;;;;;;;5007949;28;20205;-78
2022/02/22 15:15:00;;;;;;;6.20;2.13;;;;;;;;;;5013728;28;20225;-78
2022/02/22 15:17:28;;;;;;;33.23;3.83;;;;;;;;;;5016824;28;20223;-78
2022/02/22 15:19:55;;;;;;;7.60;3.53;;;;;;;;;;5018211;28;20319;-78
2022/02/22 15:22:22;;;;;;;8.37;2.90;;;;;;;;;;5007569;28;20579;-79
2022/02/22 15:24:49;;;;;;;5.47;1.50;;;;;;;;;;5012354;28;20211;-79
2022/02/22 15:27:18;;;;;;;7.20;3.00;;;;;;;;;;5008823;28;20590;-79
2022/02/22 15:29:48;;;;;;;6.43;1.83;;;;;;;;;;5008629;28;20228;-78
2022/02/22 15:32:17;;;;;;;5.50;1.30;;;;;;;;;;5011750;28;20205;-78
2022/02/22 15:34:44;;;;;;;4.90;1.97;;;;;;;;;;5012533;28;20216;-77
2022/02/22 15:37:13;;;;;;;8.70;3.27;;;;;;;;;;5013633;28;20737;-78
2022/02/22 15:39:41;;;;;;;6.00;2.70;;;;;;;;;;5009558;28;20228;-79
2022/02/22 15:42:09;;;;;;;6.17;2.00;;;;;;;;;;5017314;28;20299;-78
2022/02/22 15:44:36;;;;;;;4.40;1.87;;;;;;;;;;5012316;28;20224;-79